Schedule Details

Flight Number: CPX772
Departure: Tallinn Airport (EETN) at N/A
Arrival: Liège Airport (EBLG) at N/A
Route: TLL Q11 PIMEX P739 KOLJA M864 BUMIL OSB


Current Weather Information
EETN 152150Z 20006KT 0800 R26/1800D FG VV002 02/02 Q1017 R08/19//95 TEMPO 0400
EBLG 152120Z 17011KT CAVOK 11/M01 Q1027 NOSIG

Route Map